createdAt,value
2022-08-03T00:02:19.056Z,2.25
2022-08-03T00:04:46.811Z,2.22
2022-08-03T00:07:16.550Z,1.17
2022-08-03T00:09:44.412Z,1.48
2022-08-03T00:12:12.072Z,1.33
2022-08-03T00:14:39.651Z,1.75
2022-08-03T00:17:07.324Z,1.75
2022-08-03T00:19:35.145Z,1.95
2022-08-03T00:22:02.746Z,2.60
2022-08-03T00:24:31.394Z,2.17
2022-08-03T00:26:58.929Z,0.90
2022-08-03T00:29:26.491Z,1.05
2022-08-03T00:31:59.497Z,2.00
2022-08-03T00:34:36.513Z,2.42
2022-08-03T00:37:16.467Z,2.53
2022-08-03T00:39:46.239Z,2.92
2022-08-03T00:42:14.739Z,1.27
2022-08-03T00:44:43.811Z,1.70
2022-08-03T00:47:11.829Z,1.35
2022-08-03T00:49:41.101Z,9.32
2022-08-03T00:52:10.423Z,0.98
2022-08-03T00:54:38.898Z,1.33
2022-08-03T00:57:07.416Z,2.85
2022-08-03T00:59:35.125Z,1.73
2022-08-03T01:02:02.921Z,1.25
2022-08-03T01:04:30.438Z,1.27
2022-08-03T01:07:10.851Z,1.67
2022-08-03T01:09:52.828Z,0.20
2022-08-03T01:12:23.432Z,0.65
2022-08-03T01:15:07.379Z,0.30
2022-08-03T01:17:55.778Z,1.75
2022-08-03T01:20:25.029Z,0.35
2022-08-03T01:22:58.542Z,0.20
2022-08-03T01:25:38.584Z,0.85
2022-08-03T01:28:12.141Z,2.00
2022-08-03T01:30:42.939Z,0.20
2022-08-03T01:33:20.281Z,0.13
2022-08-03T01:35:59.007Z,1.02
2022-08-03T01:38:34.766Z,0.35
2022-08-03T01:41:08.741Z,0.35
2022-08-03T01:44:26.608Z,5.18
2022-08-03T01:46:28.640Z,0.90
2022-08-03T01:48:57.982Z,0.73
2022-08-03T01:51:56.567Z,0.22
2022-08-03T01:54:14.668Z,1.45
2022-08-03T01:56:44.155Z,0.68
2022-08-03T01:59:12.619Z,1.10
2022-08-03T02:02:28.536Z,1.45
2022-08-03T02:04:29.393Z,0.77
2022-08-03T02:06:59.909Z,1.38
2022-08-03T02:09:31.811Z,1.02
2022-08-03T02:12:00.942Z,2.65
2022-08-03T02:14:29.158Z,1.40
2022-08-03T02:16:58.613Z,1.00
2022-08-03T02:19:30.333Z,0.85
2022-08-03T02:22:01.817Z,2.47
2022-08-03T02:24:31.203Z,2.17
2022-08-03T02:27:00.303Z,0.65
2022-08-03T02:29:40.333Z,2.78
2022-08-03T02:32:16.762Z,1.27
2022-08-03T02:34:49.073Z,1.85
2022-08-03T02:37:20.175Z,2.35
2022-08-03T02:39:49.244Z,1.90
2022-08-03T02:42:21.559Z,1.50
2022-08-03T02:44:51.182Z,3.33
2022-08-03T02:47:21.499Z,2.53
2022-08-03T02:49:52.411Z,3.05
2022-08-03T02:54:51.878Z,1.05
2022-08-03T02:57:21.479Z,2.70
2022-08-03T02:59:49.681Z,4.10
2022-08-03T03:02:19.008Z,2.10
2022-08-03T03:05:51.572Z,2.47
2022-08-03T03:07:41.039Z,1.33
2022-08-03T03:10:23.880Z,3.33
2022-08-03T03:15:21.977Z,1.98
2022-08-03T03:17:51.804Z,3.55
2022-08-03T03:20:29.033Z,2.42
2022-08-03T03:23:01.635Z,2.90
2022-08-03T03:25:34.425Z,1.30
2022-08-03T03:28:03.887Z,1.02
2022-08-03T03:30:34.758Z,3.95
2022-08-03T03:33:02.963Z,2.28
2022-08-03T03:35:30.707Z,2.35
2022-08-03T03:38:07.331Z,3.10
2022-08-03T03:40:41.584Z,2.58
2022-08-03T03:43:11.077Z,3.22
2022-08-03T03:45:42.914Z,1.25
2022-08-03T03:48:10.933Z,2.85
2022-08-03T03:50:41.523Z,3.35
2022-08-03T03:53:11.153Z,4.73
2022-08-03T03:55:59.131Z,2.97
2022-08-03T03:58:26.418Z,2.55
2022-08-03T04:00:54.159Z,2.45
2022-08-03T04:03:21.878Z,3.03
2022-08-03T04:06:09.096Z,4.35
2022-08-03T04:08:55.119Z,3.50
2022-08-03T04:11:57.647Z,4.10
2022-08-03T04:14:29.753Z,5.43
2022-08-03T04:17:01.777Z,3.97
2022-08-03T04:19:44.960Z,2.65
2022-08-03T04:22:17.899Z,4.05
2022-08-03T04:24:50.872Z,3.47
2022-08-03T04:27:22.501Z,3.38
2022-08-03T04:29:53.092Z,3.47
2022-08-03T04:32:23.661Z,3.80
2022-08-03T04:34:52.531Z,2.57
2022-08-03T04:37:49.255Z,4.32
2022-08-03T04:40:41.915Z,2.60
2022-08-03T04:43:13.018Z,2.67
2022-08-03T04:45:42.654Z,3.25
2022-08-03T04:48:16.973Z,2.75
2022-08-03T04:50:46.978Z,3.13
2022-08-03T04:53:14.675Z,2.00
2022-08-03T04:55:43.256Z,3.85
2022-08-03T04:58:13.376Z,2.25
2022-08-03T05:00:42.518Z,2.33
2022-08-03T05:03:23.602Z,2.13
2022-08-03T05:06:09.353Z,3.30
2022-08-03T05:08:46.402Z,2.92
2022-08-03T05:11:17.795Z,1.95
2022-08-03T05:13:45.929Z,0.70
2022-08-03T05:16:14.490Z,1.92
2022-08-03T05:18:43.184Z,1.65
2022-08-03T05:21:12.438Z,1.23
2022-08-03T05:23:40.273Z,1.70
2022-08-03T05:26:08.147Z,1.17
2022-08-03T05:28:35.756Z,2.20
2022-08-03T05:31:11.308Z,2.05
2022-08-03T05:33:39.468Z,1.58
2022-08-03T05:36:07.455Z,1.25
2022-08-03T05:38:36.667Z,3.17
2022-08-03T05:41:22.365Z,1.20
2022-08-03T05:43:54.144Z,2.40
2022-08-03T05:46:23.115Z,1.40
2022-08-03T05:48:51.673Z,2.78
2022-08-03T05:51:20.939Z,2.33
2022-08-03T05:53:48.631Z,2.03
2022-08-03T05:56:17.089Z,1.67
2022-08-03T05:58:47.621Z,2.03
2022-08-03T06:01:19.075Z,3.75
2022-08-03T06:03:47.181Z,2.35
2022-08-03T06:06:15.697Z,2.28
2022-08-03T06:08:46.000Z,1.98
2022-08-03T06:11:13.966Z,2.50
2022-08-03T06:13:43.142Z,3.80
2022-08-03T06:16:11.986Z,5.18
2022-08-03T06:18:40.579Z,2.90
2022-08-03T06:21:15.442Z,2.95
2022-08-03T06:23:53.034Z,3.92
2022-08-03T06:26:24.059Z,3.95
2022-08-03T06:28:54.229Z,2.90
2022-08-03T06:31:26.381Z,6.40
2022-08-03T06:34:30.907Z,4.97
2022-08-03T06:36:52.687Z,4.25
2022-08-03T06:39:23.445Z,7.82
2022-08-03T06:41:53.029Z,4.53
2022-08-03T06:44:21.109Z,8.25
2022-08-03T06:46:49.458Z,5.38
2022-08-03T06:49:18.440Z,8.02
2022-08-03T06:52:05.656Z,6.32
2022-08-03T06:54:37.163Z,8.25
2022-08-03T06:57:06.608Z,7.13
2022-08-03T07:00:10.828Z,12.50
2022-08-03T07:02:22.828Z,7.85
2022-08-03T07:04:51.310Z,9.48
2022-08-03T07:07:21.057Z,7.60
2022-08-03T07:09:57.825Z,10.23
2022-08-03T07:12:31.062Z,12.40
2022-08-03T07:15:01.867Z,8.55
2022-08-03T07:17:34.267Z,7.53
2022-08-03T07:20:08.734Z,8.15
2022-08-03T07:22:37.339Z,13.45
2022-08-03T07:25:06.394Z,9.30
2022-08-03T07:27:34.757Z,7.85
2022-08-03T07:30:06.491Z,10.23
2022-08-03T07:32:35.111Z,9.23
2022-08-03T07:35:08.804Z,8.30
2022-08-03T07:37:54.328Z,10.43
2022-08-03T07:40:23.361Z,9.25
2022-08-03T07:42:55.051Z,7.65
2022-08-03T07:45:24.128Z,9.27
2022-08-03T07:47:53.198Z,9.48
2022-08-03T07:50:23.178Z,9.80
2022-08-03T07:52:57.008Z,10.77
2022-08-03T07:55:26.801Z,12.27
2022-08-03T07:58:16.521Z,7.53
2022-08-03T08:00:47.039Z,11.57
2022-08-03T08:03:14.689Z,11.32
2022-08-03T08:05:44.592Z,10.00
2022-08-03T08:08:12.654Z,9.05
2022-08-03T08:10:40.751Z,10.43
2022-08-03T08:13:08.751Z,9.27
2022-08-03T08:15:36.482Z,9.75
2022-08-03T08:18:10.584Z,8.35
2022-08-03T08:20:39.064Z,7.97
2022-08-03T08:23:20.841Z,9.13
2022-08-03T08:25:56.574Z,9.10
2022-08-03T08:28:32.205Z,7.53
2022-08-03T08:31:02.331Z,6.45
2022-08-03T08:33:48.083Z,7.25
2022-08-03T08:36:18.238Z,7.32
2022-08-03T08:38:45.989Z,10.55
2022-08-03T08:41:15.363Z,9.07
2022-08-03T08:43:43.699Z,5.63
2022-08-03T08:46:13.382Z,8.68
2022-08-03T08:48:54.085Z,7.57
2022-08-03T08:51:59.476Z,8.55
2022-08-03T08:54:17.117Z,8.05
2022-08-03T08:56:45.111Z,7.32
2022-08-03T08:59:13.494Z,7.72
2022-08-03T09:01:41.080Z,7.85
2022-08-03T09:04:09.540Z,6.03
2022-08-03T09:06:37.162Z,7.50
2022-08-03T09:09:07.095Z,8.43
2022-08-03T09:11:57.652Z,9.48
2022-08-03T09:14:36.677Z,8.10
2022-08-03T09:17:05.222Z,9.38
2022-08-03T09:19:34.143Z,7.60
2022-08-03T09:22:16.775Z,7.00
2022-08-03T09:25:23.449Z,9.57
2022-08-03T09:27:51.722Z,6.07
2022-08-03T09:30:34.215Z,10.60
2022-08-03T09:33:08.342Z,7.50
2022-08-03T09:35:54.028Z,5.95
2022-08-03T09:38:28.552Z,5.68
2022-08-03T09:40:59.883Z,5.95
2022-08-03T09:43:28.628Z,7.85
2022-08-03T09:46:07.447Z,7.78
2022-08-03T09:48:36.850Z,7.22
2022-08-03T09:51:12.809Z,6.97
2022-08-03T09:53:58.639Z,8.52
2022-08-03T09:56:39.724Z,5.88
2022-08-03T09:59:07.703Z,9.82
2022-08-03T10:01:37.292Z,8.95
2022-08-03T10:04:05.446Z,8.05
2022-08-03T10:06:33.345Z,8.88
2022-08-03T10:09:07.417Z,8.77
2022-08-03T10:11:40.965Z,7.93
2022-08-03T10:14:11.568Z,8.23
2022-08-03T10:16:40.282Z,9.07
2022-08-03T10:19:09.800Z,9.35
2022-08-03T10:21:42.659Z,13.25
2022-08-03T10:24:11.437Z,6.05
2022-08-03T10:26:49.688Z,7.65
2022-08-03T10:29:28.229Z,6.47
2022-08-03T10:31:59.496Z,9.95
2022-08-03T10:34:34.002Z,7.78
2022-08-03T10:37:08.053Z,8.77
2022-08-03T10:39:36.766Z,7.60
2022-08-03T10:42:05.651Z,10.13
2022-08-03T10:44:42.761Z,7.68
2022-08-03T10:47:11.280Z,9.15
2022-08-03T10:49:39.398Z,9.88
2022-08-03T10:52:30.367Z,7.40
2022-08-03T10:55:13.549Z,8.88
2022-08-03T10:57:52.518Z,7.10
2022-08-03T11:00:28.413Z,7.25
2022-08-03T11:03:06.234Z,7.38
2022-08-03T11:05:42.262Z,9.13
2022-08-03T11:08:29.409Z,6.75
2022-08-03T11:11:20.008Z,7.18
2022-08-03T11:14:11.271Z,7.27
2022-08-03T11:16:42.423Z,4.82
2022-08-03T11:19:13.186Z,9.00
2022-08-03T11:22:01.252Z,6.38
2022-08-03T11:24:40.795Z,9.63
2022-08-03T11:27:14.809Z,9.25
2022-08-03T11:30:04.352Z,7.35
2022-08-03T11:32:38.448Z,6.82
2022-08-03T11:35:14.570Z,8.68
2022-08-03T11:38:03.362Z,4.65
2022-08-03T11:40:44.437Z,9.20
2022-08-03T11:43:31.362Z,5.70
2022-08-03T11:46:28.686Z,9.25
2022-08-03T11:49:09.955Z,5.20
2022-08-03T11:51:40.149Z,4.32
2022-08-03T11:54:07.939Z,7.05
2022-08-03T11:56:49.867Z,6.30
2022-08-03T11:59:21.704Z,8.95
2022-08-03T12:01:50.826Z,8.60
2022-08-03T12:04:18.802Z,8.55
2022-08-03T12:07:02.004Z,7.30
2022-08-03T12:09:29.650Z,6.95
2022-08-03T12:12:00.373Z,10.30
2022-08-03T12:14:48.334Z,7.22
2022-08-03T12:17:20.690Z,9.02
2022-08-03T12:19:48.470Z,8.82
2022-08-03T12:22:18.763Z,11.15
2022-08-03T12:24:47.221Z,7.03
2022-08-03T12:27:26.490Z,6.93
2022-08-03T12:29:58.561Z,8.52
2022-08-03T12:32:30.325Z,7.10
2022-08-03T12:35:01.249Z,5.53
2022-08-03T12:37:30.017Z,9.30
2022-08-03T12:40:06.755Z,5.82
2022-08-03T12:42:39.714Z,6.32
2022-08-03T12:45:23.664Z,7.47
2022-08-03T12:47:59.483Z,9.60
2022-08-03T12:50:34.242Z,7.10
2022-08-03T12:53:05.309Z,5.45
2022-08-03T12:55:56.337Z,10.05
2022-08-03T12:58:34.657Z,4.45
2022-08-03T13:01:04.821Z,9.13
2022-08-03T13:03:45.633Z,4.70
2022-08-03T13:06:20.886Z,9.07
2022-08-03T13:08:49.429Z,5.25
2022-08-03T13:11:55.973Z,6.88
2022-08-03T13:14:13.607Z,6.55
2022-08-03T13:16:48.525Z,4.35
2022-08-03T13:19:16.246Z,5.97
2022-08-03T13:21:53.462Z,5.47
2022-08-03T13:24:32.407Z,4.70
2022-08-03T13:27:00.917Z,7.80
2022-08-03T13:29:48.711Z,7.90
2022-08-03T13:32:16.283Z,6.20
2022-08-03T13:34:44.034Z,5.18
2022-08-03T13:37:12.953Z,4.25
2022-08-03T13:39:57.740Z,4.28
2022-08-03T13:42:29.577Z,5.57
2022-08-03T13:44:57.308Z,8.18
2022-08-03T13:47:25.510Z,4.70
2022-08-03T13:49:59.554Z,6.45
2022-08-03T13:52:31.808Z,7.10
2022-08-03T13:55:00.202Z,5.65
2022-08-03T13:58:05.753Z,5.38
2022-08-03T14:00:26.437Z,5.25
2022-08-03T14:03:14.863Z,6.70
2022-08-03T14:05:44.062Z,6.53
2022-08-03T14:08:12.423Z,4.80
2022-08-03T14:10:43.071Z,7.20
2022-08-03T14:13:12.696Z,5.95
2022-08-03T14:15:50.382Z,5.13
2022-08-03T14:18:29.253Z,5.75
2022-08-03T14:21:06.932Z,4.90
2022-08-03T14:23:35.978Z,7.05
2022-08-03T14:26:04.389Z,6.80
2022-08-03T14:28:32.097Z,8.80
2022-08-03T14:31:00.024Z,6.60
2022-08-03T14:33:28.514Z,6.35
2022-08-03T14:35:56.178Z,7.57
2022-08-03T14:38:24.332Z,10.25
2022-08-03T14:40:53.079Z,6.75
2022-08-03T14:43:21.476Z,6.82
2022-08-03T14:45:53.411Z,7.53
2022-08-03T14:50:32.159Z,4.65
2022-08-03T14:51:10.379Z,3.88
2022-08-03T14:53:38.050Z,3.90
2022-08-03T14:56:10.077Z,8.32
2022-08-03T14:58:38.411Z,4.88
2022-08-03T15:02:02.139Z,7.50
2022-08-03T15:03:55.180Z,3.85
2022-08-03T15:06:22.751Z,5.75
2022-08-03T15:09:13.875Z,4.88
2022-08-03T15:11:38.708Z,5.10
2022-08-03T15:14:09.301Z,5.85
2022-08-03T15:16:38.416Z,8.63
2022-08-03T15:20:02.166Z,7.97
2022-08-03T15:21:54.441Z,15.38
2022-08-03T15:24:22.152Z,7.13
2022-08-03T15:26:51.176Z,4.93
2022-08-03T15:30:05.062Z,8.00
2022-08-03T15:32:09.465Z,6.03
2022-08-03T15:34:37.359Z,6.13
2022-08-03T15:37:16.284Z,5.00
2022-08-03T15:39:59.142Z,5.78
2022-08-03T15:42:35.316Z,5.72
2022-08-03T15:45:03.982Z,4.70
2022-08-03T15:47:31.762Z,5.15
2022-08-03T15:49:59.421Z,7.78
2022-08-03T15:52:27.788Z,4.57
2022-08-03T15:54:55.441Z,5.78
2022-08-03T15:57:23.679Z,4.97
2022-08-03T15:59:51.983Z,8.13
2022-08-03T16:02:19.774Z,8.10
2022-08-03T16:04:47.377Z,5.18
2022-08-03T16:07:15.841Z,6.07
2022-08-03T16:09:44.174Z,4.47
2022-08-03T16:12:16.404Z,9.50
2022-08-03T16:14:52.977Z,5.47
2022-08-03T16:17:22.621Z,6.30
2022-08-03T16:19:50.965Z,6.68
2022-08-03T16:22:23.817Z,4.47
2022-08-03T16:24:54.952Z,4.72
2022-08-03T16:27:56.782Z,6.45
2022-08-03T16:30:17.859Z,7.07
2022-08-03T16:32:45.775Z,6.03
2022-08-03T16:35:19.535Z,6.15
2022-08-03T16:37:51.792Z,5.07
2022-08-03T16:40:25.208Z,6.65
2022-08-03T16:42:52.900Z,8.25
2022-08-03T16:45:20.569Z,8.02
2022-08-03T16:47:48.204Z,4.30
2022-08-03T16:50:29.489Z,7.05
2022-08-03T16:52:57.211Z,6.30
2022-08-03T16:55:48.582Z,4.70
2022-08-03T16:58:15.075Z,7.22
2022-08-03T17:00:43.133Z,8.32
2022-08-03T17:03:20.498Z,5.50
2022-08-03T17:05:52.318Z,4.82
2022-08-03T17:08:26.347Z,6.15
2022-08-03T17:10:56.006Z,6.65
2022-08-03T17:13:38.917Z,6.60
2022-08-03T17:16:09.733Z,8.98
2022-08-03T17:18:52.603Z,7.35
2022-08-03T17:21:29.494Z,10.10
2022-08-03T17:24:20.612Z,5.53
2022-08-03T17:26:51.355Z,7.20
2022-08-03T17:29:23.115Z,7.38
2022-08-03T17:31:53.337Z,6.00
2022-08-03T17:34:26.264Z,6.47
2022-08-03T17:37:04.088Z,6.97
2022-08-03T17:39:56.812Z,7.22
2022-08-03T17:42:38.970Z,8.93
2022-08-03T17:45:08.882Z,7.28
2022-08-03T17:47:43.831Z,6.22
2022-08-03T17:50:24.805Z,7.43
2022-08-03T17:53:07.196Z,7.72
2022-08-03T17:55:56.780Z,13.00
2022-08-03T17:58:41.616Z,7.82
2022-08-03T18:02:00.458Z,8.43
2022-08-03T18:04:55.399Z,10.98
2022-08-03T18:07:41.052Z,8.40
2022-08-03T18:10:11.354Z,9.40
2022-08-03T18:12:52.472Z,7.50
2022-08-03T18:15:37.224Z,8.25
2022-08-03T18:18:10.493Z,6.53
2022-08-03T18:20:42.161Z,6.32
2022-08-03T18:23:24.563Z,10.35
2022-08-03T18:25:58.090Z,9.98
2022-08-03T18:28:28.889Z,9.20
2022-08-03T18:30:57.506Z,7.93
2022-08-03T18:34:17.627Z,10.65
2022-08-03T18:36:22.006Z,5.45
2022-08-03T18:39:00.056Z,6.20
2022-08-03T18:41:35.073Z,6.07
2022-08-03T18:44:08.104Z,9.95
2022-08-03T18:47:16.209Z,6.22
2022-08-03T18:49:49.922Z,9.73
2022-08-03T18:52:27.785Z,5.40
2022-08-03T18:55:32.813Z,4.97
2022-08-03T19:01:15.205Z,5.73
2022-08-03T19:04:08.326Z,5.20
2022-08-03T19:06:42.177Z,3.90
2022-08-03T19:09:38.061Z,5.00
2022-08-03T19:12:28.219Z,6.10
2022-08-03T19:15:12.655Z,5.13
2022-08-03T19:17:52.654Z,5.85
2022-08-03T19:20:26.591Z,7.75
2022-08-03T19:22:59.270Z,6.00
2022-08-03T19:25:34.967Z,4.35
2022-08-03T19:28:07.462Z,2.92
2022-08-03T19:30:40.266Z,3.40
2022-08-03T19:33:10.730Z,6.40
2022-08-03T19:35:51.338Z,5.55
2022-08-03T19:38:28.817Z,4.72
2022-08-03T19:41:00.784Z,4.47
2022-08-03T19:43:53.313Z,4.40
2022-08-03T19:46:27.717Z,6.55
2022-08-03T19:49:14.613Z,7.05
2022-08-03T19:52:00.635Z,6.38
2022-08-03T19:54:54.170Z,4.40
2022-08-03T19:57:25.001Z,3.17
2022-08-03T19:59:58.502Z,4.03
2022-08-03T20:02:34.557Z,9.00
2022-08-03T20:05:02.756Z,5.50
2022-08-03T20:07:32.947Z,4.30
2022-08-03T20:10:04.756Z,6.10
2022-08-03T20:12:39.076Z,5.53
2022-08-03T20:15:09.313Z,5.70
2022-08-03T20:17:54.348Z,5.97
2022-08-03T20:20:29.436Z,3.10
2022-08-03T20:22:59.165Z,5.57
2022-08-03T20:25:38.113Z,3.58
2022-08-03T20:28:14.986Z,7.07
2022-08-03T20:30:47.208Z,4.68
2022-08-03T20:33:19.055Z,6.38
2022-08-03T20:38:18.872Z,5.53
2022-08-03T20:40:49.327Z,6.82
2022-08-03T20:43:20.050Z,5.18
2022-08-03T20:45:59.551Z,6.18
2022-08-03T20:48:38.547Z,5.10
2022-08-03T20:51:19.757Z,4.65
2022-08-03T20:54:00.177Z,7.85
2022-08-03T20:56:34.039Z,7.70
2022-08-03T20:59:07.054Z,6.97
2022-08-03T21:01:44.387Z,6.22
2022-08-03T21:04:13.554Z,7.75
2022-08-03T21:06:53.377Z,5.00
2022-08-03T21:09:33.458Z,9.65
2022-08-03T21:12:12.247Z,6.55
2022-08-03T21:13:08.841Z,6.53
2022-08-03T21:15:07.355Z,4.95
2022-08-03T21:17:41.334Z,6.53
2022-08-03T21:20:11.774Z,6.65
2022-08-03T21:22:44.131Z,5.22
2022-08-03T21:25:15.492Z,6.18
2022-08-03T21:27:43.691Z,5.22
2022-08-03T21:30:12.220Z,6.03
2022-08-03T21:32:43.130Z,6.47
2022-08-03T21:35:12.440Z,6.53
2022-08-03T21:37:40.977Z,4.93
2022-08-03T21:40:10.914Z,4.88
2022-08-03T21:42:43.727Z,4.25
2022-08-03T21:45:17.063Z,5.35
2022-08-03T21:47:47.296Z,5.22
2022-08-03T21:50:15.738Z,7.57
2022-08-03T21:52:45.835Z,4.43
2022-08-03T21:55:18.429Z,8.20
2022-08-03T21:57:53.547Z,6.43
2022-08-03T22:00:25.663Z,5.28
2022-08-03T22:02:57.387Z,11.23
2022-08-03T22:05:29.083Z,8.23
2022-08-03T22:08:15.078Z,6.43
2022-08-03T22:10:44.596Z,4.80
2022-08-03T22:13:14.147Z,5.22
2022-08-03T22:15:42.323Z,7.80
2022-08-03T22:18:10.668Z,9.68
2022-08-03T22:20:38.357Z,12.13
2022-08-03T22:23:07.442Z,5.88
2022-08-03T22:25:39.250Z,7.20
2022-08-03T22:28:10.990Z,7.47
2022-08-03T22:30:39.470Z,6.65
2022-08-03T22:33:11.565Z,6.05
2022-08-03T22:35:46.447Z,7.03
2022-08-03T22:38:17.823Z,5.93
2022-08-03T22:40:48.331Z,10.05
2022-08-03T22:43:16.933Z,8.30
2022-08-03T22:46:10.106Z,9.27
2022-08-03T22:48:41.366Z,9.30
2022-08-03T22:51:10.379Z,5.97
2022-08-03T22:53:39.334Z,8.63
2022-08-03T22:56:07.723Z,8.40
2022-08-03T22:58:35.286Z,6.65
2022-08-03T23:01:07.383Z,9.15
2022-08-03T23:03:59.080Z,8.20
2022-08-03T23:06:35.729Z,9.45
2022-08-03T23:09:09.556Z,9.05
2022-08-03T23:11:45.776Z,8.23
2022-08-03T23:14:16.182Z,9.65
2022-08-03T23:16:45.191Z,8.45
2022-08-03T23:19:25.216Z,6.32
2022-08-03T23:24:30.380Z,9.13
2022-08-03T23:26:58.926Z,8.50
2022-08-03T23:29:28.894Z,11.02
2022-08-03T23:31:57.554Z,9.60
2022-08-03T23:34:44.555Z,8.23
2022-08-03T23:37:15.204Z,9.45
2022-08-03T23:39:46.297Z,13.47
2022-08-03T23:42:17.127Z,7.63
2022-08-03T23:44:46.994Z,6.78
2022-08-03T23:47:14.603Z,8.75
2022-08-03T23:49:42.286Z,9.85
2022-08-03T23:52:34.035Z,10.77
2022-08-03T23:58:11.104Z,8.32
